Time;durP1;ratioP1;P1;durP2;ratioP2;P2;SDS_P1;SDS_P2;PMS_P1;PMS_P2;Temp;Humidity;BMP_temperature;BMP_pressure;BME280_temperature;BME280_humidity;BME280_pressure;Samples;Min_cycle;Max_cycle;Signal;HPM_P1;HPM_P2
2023/12/09 00:01:43;;;;;;;1.88;1.48;;;;;;;;;;5021938;28;20026;-77
2023/12/09 00:04:09;;;;;;;1.45;1.23;;;;;;;;;;5021435;28;20523;-77
2023/12/09 00:06:35;;;;;;;2.00;1.80;;;;;;;;;;5016802;28;20026;-77
2023/12/09 00:09:02;;;;;;;1.83;1.67;;;;;;;;;;5019423;28;20030;-78
2023/12/09 00:11:28;;;;;;;1.98;1.70;;;;;;;;;;5015967;28;20037;-79
2023/12/09 00:13:54;;;;;;;1.30;1.20;;;;;;;;;;5014594;28;20022;-77
2023/12/09 00:16:20;;;;;;;2.42;1.58;;;;;;;;;;5014368;28;20168;-78
2023/12/09 00:18:46;;;;;;;1.48;1.33;;;;;;;;;;5031235;28;20033;-77
2023/12/09 00:21:14;;;;;;;1.50;1.40;;;;;;;;;;5011259;28;20046;-78
2023/12/09 00:23:40;;;;;;;1.60;1.45;;;;;;;;;;5015378;28;20370;-77
2023/12/09 00:26:06;;;;;;;1.90;1.55;;;;;;;;;;5014404;28;20021;-77
2023/12/09 00:28:32;;;;;;;1.63;1.40;;;;;;;;;;5007014;28;20094;-78
2023/12/09 00:30:58;;;;;;;1.98;1.60;;;;;;;;;;5014334;28;20022;-78
2023/12/09 00:33:24;;;;;;;1.58;1.48;;;;;;;;;;5022879;28;20030;-78
2023/12/09 00:35:50;;;;;;;1.45;1.30;;;;;;;;;;5022023;28;20026;-78
2023/12/09 00:38:16;;;;;;;2.00;1.75;;;;;;;;;;5013398;28;20489;-78
2023/12/09 00:40:42;;;;;;;1.90;1.58;;;;;;;;;;5015781;28;20056;-78
2023/12/09 00:43:08;;;;;;;1.67;1.50;;;;;;;;;;5013858;28;20514;-77
2023/12/09 00:45:34;;;;;;;2.03;1.65;;;;;;;;;;5010600;28;20392;-77
2023/12/09 00:48:00;;;;;;;3.53;2.05;;;;;;;;;;5014448;28;20380;-78
2023/12/09 00:50:26;;;;;;;1.90;1.63;;;;;;;;;;5021037;28;20038;-78
2023/12/09 00:52:52;;;;;;;2.03;1.80;;;;;;;;;;5006106;28;20029;-78
2023/12/09 00:55:18;;;;;;;2.05;1.73;;;;;;;;;;5016003;28;20220;-78
2023/12/09 00:57:44;;;;;;;1.95;1.63;;;;;;;;;;5012818;28;20061;-78
2023/12/09 01:00:11;;;;;;;2.53;1.88;;;;;;;;;;5012131;28;20050;-77
2023/12/09 01:02:39;;;;;;;2.15;1.60;;;;;;;;;;5011363;28;20030;-76
2023/12/09 01:05:05;;;;;;;2.28;1.95;;;;;;;;;;5024625;28;20033;-77
2023/12/09 01:07:31;;;;;;;1.88;1.73;;;;;;;;;;5010003;28;20504;-77
2023/12/09 01:09:57;;;;;;;2.90;2.30;;;;;;;;;;5011625;28;20388;-77
2023/12/09 01:12:23;;;;;;;2.20;2.00;;;;;;;;;;5011975;28;20036;-78
2023/12/09 01:14:49;;;;;;;3.53;2.30;;;;;;;;;;5010875;28;20032;-77
2023/12/09 01:17:15;;;;;;;2.42;2.10;;;;;;;;;;5011848;28;20030;-78
2023/12/09 01:19:42;;;;;;;2.38;1.95;;;;;;;;;;5011629;28;20029;-77
2023/12/09 01:22:09;;;;;;;2.45;2.15;;;;;;;;;;5012977;28;20056;-77
2023/12/09 01:24:35;;;;;;;2.78;2.00;;;;;;;;;;5016240;28;20052;-77
2023/12/09 01:27:01;;;;;;;3.45;2.10;;;;;;;;;;5016392;28;20040;-78
2023/12/09 01:29:27;;;;;;;2.20;1.83;;;;;;;;;;5014819;28;20082;-78
2023/12/09 01:31:53;;;;;;;2.70;2.10;;;;;;;;;;5011492;28;20033;-78
2023/12/09 01:34:19;;;;;;;2.08;1.70;;;;;;;;;;5025191;28;20391;-78
2023/12/09 01:36:45;;;;;;;2.33;1.83;;;;;;;;;;5015280;28;20055;-78
2023/12/09 01:39:11;;;;;;;2.40;1.80;;;;;;;;;;5014538;28;20030;-77
2023/12/09 01:41:38;;;;;;;2.40;2.20;;;;;;;;;;5013675;28;20022;-78
2023/12/09 01:44:04;;;;;;;3.25;2.45;;;;;;;;;;5011810;28;20018;-77
2023/12/09 01:46:31;;;;;;;3.13;2.33;;;;;;;;;;5012901;28;20026;-77
2023/12/09 01:48:57;;;;;;;3.20;2.10;;;;;;;;;;5014009;28;20018;-77
2023/12/09 01:51:24;;;;;;;1.67;1.55;;;;;;;;;;5014181;28;20022;-77
2023/12/09 01:53:50;;;;;;;6.22;4.55;;;;;;;;;;5012840;28;20499;-78
2023/12/09 01:56:17;;;;;;;5.88;4.32;;;;;;;;;;5013330;28;20056;-77
2023/12/09 01:58:43;;;;;;;6.68;4.93;;;;;;;;;;5011263;28;20048;-77
2023/12/09 02:01:09;;;;;;;6.20;4.18;;;;;;;;;;5013054;28;20115;-77
2023/12/09 02:03:35;;;;;;;4.50;3.47;;;;;;;;;;5016481;28;20030;-78
2023/12/09 02:06:02;;;;;;;4.80;3.75;;;;;;;;;;5013827;28;20026;-78
2023/12/09 02:08:28;;;;;;;4.57;3.40;;;;;;;;;;5012747;28;20036;-78
2023/12/09 02:11:13;;;;;;;3.90;3.50;;;;;;;;;;5010521;28;20030;-78
2023/12/09 02:13:49;;;;;;;4.55;3.25;;;;;;;;;;5011320;28;20080;-78
2023/12/09 02:16:17;;;;;;;4.97;3.55;;;;;;;;;;5011584;28;20540;-77
2023/12/09 02:18:45;;;;;;;4.68;4.07;;;;;;;;;;5012321;28;20034;-77
2023/12/09 02:21:11;;;;;;;3.90;2.92;;;;;;;;;;5015358;28;20495;-78
2023/12/09 02:23:37;;;;;;;4.95;3.65;;;;;;;;;;5012040;28;20030;-76
2023/12/09 02:26:05;;;;;;;3.47;2.92;;;;;;;;;;5012384;28;20076;-77
2023/12/09 02:28:32;;;;;;;5.72;4.22;;;;;;;;;;5012919;28;20034;-77
2023/12/09 02:31:13;;;;;;;5.90;4.45;;;;;;;;;;5012602;28;20018;-77
2023/12/09 02:33:43;;;;;;;5.72;4.35;;;;;;;;;;5013100;28;20042;-77
2023/12/09 02:36:10;;;;;;;5.65;4.72;;;;;;;;;;5010314;28;20025;-77
2023/12/09 02:38:37;;;;;;;4.40;3.83;;;;;;;;;;5013927;28;20136;-77
2023/12/09 02:41:04;;;;;;;5.20;4.28;;;;;;;;;;5014848;28;20030;-77
2023/12/09 02:43:30;;;;;;;6.00;4.47;;;;;;;;;;5012491;28;20033;-78
2023/12/09 02:45:56;;;;;;;5.40;4.38;;;;;;;;;;5014083;28;20473;-77
2023/12/09 02:48:23;;;;;;;7.05;5.60;;;;;;;;;;5013709;28;20054;-78
2023/12/09 02:50:49;;;;;;;6.15;5.22;;;;;;;;;;5016694;28;20049;-78
2023/12/09 02:53:16;;;;;;;6.15;4.50;;;;;;;;;;5013811;28;20078;-77
2023/12/09 02:55:42;;;;;;;5.38;4.28;;;;;;;;;;5012601;28;20029;-77
2023/12/09 02:58:08;;;;;;;6.00;4.88;;;;;;;;;;5013081;28;20037;-76
2023/12/09 03:00:34;;;;;;;6.32;4.28;;;;;;;;;;5012453;28;20045;-78
2023/12/09 03:03:00;;;;;;;5.03;3.97;;;;;;;;;;5013592;28;20585;-77
2023/12/09 03:05:26;;;;;;;4.90;3.88;;;;;;;;;;5014328;28;20106;-77
2023/12/09 03:07:52;;;;;;;3.95;3.55;;;;;;;;;;5012661;28;20102;-77
2023/12/09 03:10:18;;;;;;;3.45;3.15;;;;;;;;;;5012587;28;20022;-77
2023/12/09 03:12:44;;;;;;;4.45;3.35;;;;;;;;;;5012413;28;20030;-77
2023/12/09 03:15:10;;;;;;;4.68;3.63;;;;;;;;;;5011502;28;20384;-77
2023/12/09 03:17:37;;;;;;;4.38;3.10;;;;;;;;;;5010688;28;20036;-77
2023/12/09 03:20:07;;;;;;;3.83;3.10;;;;;;;;;;5011586;28;20056;-77
2023/12/09 03:22:33;;;;;;;3.35;2.70;;;;;;;;;;5012426;28;20346;-77
2023/12/09 03:24:59;;;;;;;4.32;2.75;;;;;;;;;;5013428;28;20018;-77
2023/12/09 03:27:25;;;;;;;3.75;2.88;;;;;;;;;;5012072;28;20045;-78
2023/12/09 03:29:51;;;;;;;3.35;3.00;;;;;;;;;;5011995;28;20054;-78
2023/12/09 03:32:17;;;;;;;3.05;2.70;;;;;;;;;;5016172;28;20047;-78
2023/12/09 03:34:44;;;;;;;3.28;2.97;;;;;;;;;;5024374;28;20041;-76
2023/12/09 03:37:10;;;;;;;3.47;2.67;;;;;;;;;;5017655;28;20034;-77
2023/12/09 03:39:36;;;;;;;3.17;2.60;;;;;;;;;;5023756;28;20033;-77
2023/12/09 03:42:02;;;;;;;4.22;3.10;;;;;;;;;;5027932;28;20025;-77
2023/12/09 03:44:28;;;;;;;3.45;2.60;;;;;;;;;;5013704;28;20018;-77
2023/12/09 03:46:54;;;;;;;2.55;2.35;;;;;;;;;;5012257;28;20038;-77
2023/12/09 03:49:21;;;;;;;3.08;2.67;;;;;;;;;;5015270;28;20038;-77
2023/12/09 03:51:47;;;;;;;3.63;2.70;;;;;;;;;;5012069;28;20026;-77
2023/12/09 03:54:13;;;;;;;3.13;2.63;;;;;;;;;;5009357;28;20693;-77
2023/12/09 03:56:39;;;;;;;2.90;2.40;;;;;;;;;;5011681;28;20049;-76
2023/12/09 03:59:05;;;;;;;2.40;2.20;;;;;;;;;;5012171;28;20022;-77
2023/12/09 04:01:31;;;;;;;4.43;3.40;;;;;;;;;;5011443;28;20030;-77
2023/12/09 04:03:57;;;;;;;4.43;3.58;;;;;;;;;;5012615;28;20596;-77
2023/12/09 04:06:24;;;;;;;3.47;2.90;;;;;;;;;;5011741;28;20037;-77
2023/12/09 04:08:52;;;;;;;3.35;2.70;;;;;;;;;;5010384;28;20018;-77
2023/12/09 04:11:19;;;;;;;4.30;3.00;;;;;;;;;;5010815;28;20495;-78
2023/12/09 04:13:45;;;;;;;2.92;2.55;;;;;;;;;;5017410;28;20034;-78
2023/12/09 04:16:11;;;;;;;3.50;2.78;;;;;;;;;;5017130;28;20037;-77
2023/12/09 04:18:37;;;;;;;3.88;3.28;;;;;;;;;;5018733;28;20045;-77
2023/12/09 04:21:04;;;;;;;3.45;3.13;;;;;;;;;;5019219;28;20030;-76
2023/12/09 04:23:32;;;;;;;3.67;2.90;;;;;;;;;;5018484;28;20045;-77
2023/12/09 04:25:59;;;;;;;2.85;2.63;;;;;;;;;;5015262;28;20053;-77
2023/12/09 04:28:25;;;;;;;3.17;2.88;;;;;;;;;;5016586;28;20038;-77
2023/12/09 04:30:51;;;;;;;2.83;2.55;;;;;;;;;;5017033;28;20037;-76
2023/12/09 04:33:17;;;;;;;2.40;2.20;;;;;;;;;;5018474;28;20041;-76
2023/12/09 04:35:43;;;;;;;2.20;1.98;;;;;;;;;;5019026;28;20022;-77
2023/12/09 04:38:09;;;;;;;2.17;1.98;;;;;;;;;;5017586;28;20077;-77
2023/12/09 04:40:35;;;;;;;2.10;1.90;;;;;;;;;;5016640;28;20140;-77
2023/12/09 04:43:01;;;;;;;2.05;1.85;;;;;;;;;;5011893;28;20090;-77
2023/12/09 04:45:28;;;;;;;3.15;2.25;;;;;;;;;;5013680;28;20094;-77
2023/12/09 04:47:54;;;;;;;2.67;2.33;;;;;;;;;;5013465;28;20488;-76
2023/12/09 04:50:20;;;;;;;2.78;2.42;;;;;;;;;;5015291;28;20037;-78
2023/12/09 04:52:47;;;;;;;2.20;2.00;;;;;;;;;;5021619;28;20029;-81
2023/12/09 04:55:13;;;;;;;2.78;2.05;;;;;;;;;;5031542;28;20037;-80
2023/12/09 04:57:39;;;;;;;2.90;2.20;;;;;;;;;;5028122;28;20094;-80
2023/12/09 05:00:05;;;;;;;2.95;2.63;;;;;;;;;;5033179;28;20072;-79
2023/12/09 05:02:32;;;;;;;2.15;1.95;;;;;;;;;;5033215;28;20044;-80
2023/12/09 05:04:58;;;;;;;2.17;1.90;;;;;;;;;;5032373;28;20049;-80
2023/12/09 05:07:26;;;;;;;1.70;1.50;;;;;;;;;;5034813;28;20060;-80
2023/12/09 05:09:52;;;;;;;1.83;1.70;;;;;;;;;;5027847;28;20030;-81
2023/12/09 05:12:19;;;;;;;1.90;1.80;;;;;;;;;;5021220;28;20025;-81
2023/12/09 05:14:45;;;;;;;1.63;1.52;;;;;;;;;;5018149;28;20025;-81
2023/12/09 05:17:11;;;;;;;1.73;1.63;;;;;;;;;;5019145;28;20356;-81
2023/12/09 05:19:38;;;;;;;1.17;1.08;;;;;;;;;;5019884;28;20559;-81
2023/12/09 05:22:04;;;;;;;2.03;1.83;;;;;;;;;;5020261;28;20033;-80
2023/12/09 05:24:30;;;;;;;2.95;2.60;;;;;;;;;;5020955;28;20025;-82
2023/12/09 05:26:57;;;;;;;1.88;1.77;;;;;;;;;;5018201;28;20112;-81
2023/12/09 05:29:23;;;;;;;2.33;1.92;;;;;;;;;;5018053;28;20057;-81
2023/12/09 05:31:49;;;;;;;2.15;1.42;;;;;;;;;;5017401;28;20048;-82
2023/12/09 05:34:16;;;;;;;2.00;1.70;;;;;;;;;;5018030;28;20438;-81
2023/12/09 05:36:42;;;;;;;1.52;1.38;;;;;;;;;;5016578;28;20511;-82
2023/12/09 05:39:08;;;;;;;2.80;2.13;;;;;;;;;;5020741;28;20057;-82
2023/12/09 05:41:34;;;;;;;2.22;1.70;;;;;;;;;;5020141;28;20018;-81
2023/12/09 05:44:00;;;;;;;2.05;1.85;;;;;;;;;;5016403;28;20038;-81
2023/12/09 05:46:26;;;;;;;2.50;1.85;;;;;;;;;;5020204;28;20229;-83
2023/12/09 05:48:53;;;;;;;1.58;1.48;;;;;;;;;;5026792;28;20030;-81
2023/12/09 05:51:19;;;;;;;1.88;1.77;;;;;;;;;;5021144;28;20025;-86
2023/12/09 05:53:45;;;;;;;2.05;1.75;;;;;;;;;;5022185;28;20041;-83
2023/12/09 05:56:11;;;;;;;1.63;1.52;;;;;;;;;;5021392;28;20025;-84
2023/12/09 05:58:39;;;;;;;1.60;1.50;;;;;;;;;;5020260;28;20097;-83
2023/12/09 06:01:05;;;;;;;1.73;1.63;;;;;;;;;;5022370;28;20447;-84
2023/12/09 06:03:31;;;;;;;1.52;1.42;;;;;;;;;;5034957;28;20025;-84
2023/12/09 06:05:58;;;;;;;1.60;1.50;;;;;;;;;;5030925;28;20029;-82
2023/12/09 06:08:24;;;;;;;2.40;1.92;;;;;;;;;;5020082;28;20461;-82
2023/12/09 06:10:50;;;;;;;2.70;1.35;;;;;;;;;;5021561;28;20026;-81
2023/12/09 06:13:16;;;;;;;2.15;1.92;;;;;;;;;;5021792;28;20037;-82
2023/12/09 06:15:42;;;;;;;1.95;1.73;;;;;;;;;;5021116;28;20094;-82
2023/12/09 06:18:09;;;;;;;2.03;1.45;;;;;;;;;;5020274;28;20026;-83
2023/12/09 06:20:35;;;;;;;1.40;1.30;;;;;;;;;;5020055;28;20477;-83
2023/12/09 06:23:01;;;;;;;1.48;1.38;;;;;;;;;;5018085;28;20037;-84
2023/12/09 06:25:28;;;;;;;1.20;1.13;;;;;;;;;;5020153;28;20033;-82
2023/12/09 06:27:54;;;;;;;1.65;1.15;;;;;;;;;;5020073;28;20026;-82
2023/12/09 06:30:20;;;;;;;1.52;1.40;;;;;;;;;;5021320;28;20017;-83
2023/12/09 06:32:46;;;;;;;1.20;1.10;;;;;;;;;;5028821;28;20033;-81
2023/12/09 06:35:12;;;;;;;1.52;1.30;;;;;;;;;;5035148;28;20030;-82
2023/12/09 06:37:38;;;;;;;0.90;0.82;;;;;;;;;;5023121;28;20025;-80
2023/12/09 06:40:05;;;;;;;1.23;1.10;;;;;;;;;;5023403;28;20045;-82
2023/12/09 06:42:31;;;;;;;1.17;1.05;;;;;;;;;;5019538;28;20042;-84
2023/12/09 06:44:57;;;;;;;1.58;1.05;;;;;;;;;;5019069;28;20021;-81
2023/12/09 06:47:24;;;;;;;1.00;1.00;;;;;;;;;;5024534;28;20175;-82
2023/12/09 06:49:50;;;;;;;0.68;0.68;;;;;;;;;;5019021;28;20461;-82
2023/12/09 06:52:16;;;;;;;0.70;0.70;;;;;;;;;;5017831;28;20052;-83
2023/12/09 06:54:42;;;;;;;0.80;0.70;;;;;;;;;;5018730;28;20052;-83
2023/12/09 06:57:09;;;;;;;0.50;0.50;;;;;;;;;;5023811;28;20052;-82
2023/12/09 06:59:35;;;;;;;0.70;0.70;;;;;;;;;;5034731;28;20124;-82
2023/12/09 07:02:01;;;;;;;0.60;0.60;;;;;;;;;;5039507;28;20444;-80
2023/12/09 07:04:27;;;;;;;0.60;0.60;;;;;;;;;;5027756;28;20038;-81
2023/12/09 07:06:53;;;;;;;0.85;0.85;;;;;;;;;;5038331;28;20034;-82
2023/12/09 07:09:19;;;;;;;0.85;0.80;;;;;;;;;;5035497;28;20006;-78
2023/12/09 07:11:46;;;;;;;0.70;0.70;;;;;;;;;;5044112;28;20084;-80
2023/12/09 07:14:15;;;;;;;1.13;1.00;;;;;;;;;;5029121;28;20502;-84
2023/12/09 07:16:41;;;;;;;0.98;0.98;;;;;;;;;;5019639;28;20084;-83
2023/12/09 07:19:07;;;;;;;1.38;1.27;;;;;;;;;;5019856;28;20025;-83
2023/12/09 07:21:33;;;;;;;1.98;1.48;;;;;;;;;;5019188;28;20052;-82
2023/12/09 07:23:59;;;;;;;2.28;1.27;;;;;;;;;;5020287;28;20053;-82
2023/12/09 07:26:25;;;;;;;1.77;1.40;;;;;;;;;;5022943;28;20031;-80
2023/12/09 07:28:51;;;;;;;1.23;1.10;;;;;;;;;;5021909;28;20109;-82
2023/12/09 07:31:18;;;;;;;1.48;1.15;;;;;;;;;;5025793;28;20075;-79
2023/12/09 07:33:44;;;;;;;1.00;1.00;;;;;;;;;;5032896;28;20026;-83
2023/12/09 07:36:10;;;;;;;1.30;1.20;;;;;;;;;;5028959;28;20063;-83
2023/12/09 07:38:36;;;;;;;1.40;1.30;;;;;;;;;;5021785;28;20088;-84
2023/12/09 07:41:03;;;;;;;0.90;0.90;;;;;;;;;;5023312;28;20057;-83
2023/12/09 07:43:31;;;;;;;1.98;1.30;;;;;;;;;;5021580;28;20022;-84
2023/12/09 07:45:57;;;;;;;1.08;1.08;;;;;;;;;;5026392;28;20232;-82
2023/12/09 07:48:23;;;;;;;1.98;1.30;;;;;;;;;;5034878;28;20046;-78
2023/12/09 07:50:49;;;;;;;0.93;0.82;;;;;;;;;;5034205;28;20018;-80
2023/12/09 07:53:16;;;;;;;1.00;1.00;;;;;;;;;;5033352;28;20076;-82
2023/12/09 07:55:42;;;;;;;1.27;1.02;;;;;;;;;;5032430;28;20037;-81
2023/12/09 07:58:08;;;;;;;0.88;0.88;;;;;;;;;;5028158;28;20030;-81
2023/12/09 08:00:35;;;;;;;0.95;0.95;;;;;;;;;;5032184;28;20034;-80
2023/12/09 08:03:04;;;;;;;1.45;1.20;;;;;;;;;;5045019;28;20078;-79
2023/12/09 08:05:31;;;;;;;1.58;1.42;;;;;;;;;;5037402;28;20046;-82
2023/12/09 08:07:58;;;;;;;1.25;1.15;;;;;;;;;;5016761;28;20022;-83
2023/12/09 08:10:24;;;;;;;1.30;1.20;;;;;;;;;;5026154;28;20029;-82
2023/12/09 08:12:50;;;;;;;1.10;1.00;;;;;;;;;;5022655;28;20113;-82
2023/12/09 08:15:16;;;;;;;0.98;0.88;;;;;;;;;;5025437;28;20044;-83
2023/12/09 08:17:42;;;;;;;1.25;1.15;;;;;;;;;;5017313;28;20084;-82
2023/12/09 08:20:08;;;;;;;0.80;0.80;;;;;;;;;;5022593;28;20387;-82
2023/12/09 08:22:46;;;;;;;1.23;1.10;;;;;;;;;;5020972;28;20026;-83
2023/12/09 08:25:12;;;;;;;1.20;0.80;;;;;;;;;;5010952;28;20022;-82
2023/12/09 08:27:39;;;;;;;1.38;0.95;;;;;;;;;;5017429;28;20508;-82
2023/12/09 08:30:10;;;;;;;1.23;1.13;;;;;;;;;;5016593;28;20432;-82
2023/12/09 08:32:37;;;;;;;1.60;1.25;;;;;;;;;;5023038;28;20022;-83
2023/12/09 08:35:03;;;;;;;1.60;1.27;;;;;;;;;;5001334;28;20026;-81
2023/12/09 08:37:30;;;;;;;1.80;1.60;;;;;;;;;;5018564;28;20030;-82
2023/12/09 08:39:57;;;;;;;1.10;1.00;;;;;;;;;;5018698;28;20034;-82
2023/12/09 08:42:23;;;;;;;2.90;1.35;;;;;;;;;;5019519;28;20022;-81
2023/12/09 08:44:49;;;;;;;1.15;1.05;;;;;;;;;;5020746;28;20068;-81
2023/12/09 08:47:15;;;;;;;1.17;1.08;;;;;;;;;;5019529;28;20082;-81
2023/12/09 08:49:43;;;;;;;1.30;1.20;;;;;;;;;;5019217;28;20052;-80
2023/12/09 08:52:09;;;;;;;1.38;1.23;;;;;;;;;;5022440;28;20085;-84
2023/12/09 08:54:35;;;;;;;1.17;1.10;;;;;;;;;;5024088;28;20030;-83
2023/12/09 08:57:02;;;;;;;2.20;1.13;;;;;;;;;;5022794;28;20038;-83
2023/12/09 08:59:28;;;;;;;1.48;1.23;;;;;;;;;;5022945;23;20554;-78
2023/12/09 09:01:54;;;;;;;1.52;1.30;;;;;;;;;;4997597;28;20080;-79
2023/12/09 09:04:22;;;;;;;1.60;1.30;;;;;;;;;;5006350;28;20022;-79
2023/12/09 09:06:48;;;;;;;1.35;1.10;;;;;;;;;;5000589;28;20022;-79
2023/12/09 09:09:14;;;;;;;1.13;0.93;;;;;;;;;;5012479;28;20018;-79
2023/12/09 09:11:40;;;;;;;1.05;1.00;;;;;;;;;;4997897;28;20420;-79
2023/12/09 09:14:06;;;;;;;0.70;0.70;;;;;;;;;;4997580;28;20034;-78
2023/12/09 09:16:32;;;;;;;1.02;0.95;;;;;;;;;;5005226;28;20546;-79
2023/12/09 09:18:59;;;;;;;0.70;0.70;;;;;;;;;;4997478;28;20031;-79
2023/12/09 09:21:25;;;;;;;0.80;0.80;;;;;;;;;;4998287;28;20041;-79
2023/12/09 09:23:51;;;;;;;0.55;0.55;;;;;;;;;;4997287;28;20026;-79
2023/12/09 09:26:17;;;;;;;0.60;0.60;;;;;;;;;;4997347;28;20069;-78
2023/12/09 09:28:43;;;;;;;0.73;0.73;;;;;;;;;;4995713;28;20085;-79
2023/12/09 09:31:11;;;;;;;0.50;0.50;;;;;;;;;;4976075;28;20110;-79
2023/12/09 09:33:37;;;;;;;0.52;0.52;;;;;;;;;;4993842;28;20054;-80
2023/12/09 09:36:03;;;;;;;0.30;0.30;;;;;;;;;;4997248;28;20018;-79
2023/12/09 09:38:29;;;;;;;0.40;0.40;;;;;;;;;;4998209;28;20030;-78
2023/12/09 09:40:56;;;;;;;0.45;0.45;;;;;;;;;;5001861;28;20393;-80
2023/12/09 09:43:25;;;;;;;0.43;0.43;;;;;;;;;;5008371;28;20030;-80
2023/12/09 09:45:53;;;;;;;0.40;0.40;;;;;;;;;;5013995;28;20022;-79
2023/12/09 09:48:24;;;;;;;0.45;0.45;;;;;;;;;;4999381;28;20014;-78
2023/12/09 09:50:52;;;;;;;0.45;0.45;;;;;;;;;;5001122;28;20088;-79
2023/12/09 09:53:30;;;;;;;0.45;0.45;;;;;;;;;;4998364;28;20027;-78
2023/12/09 09:55:57;;;;;;;0.60;0.60;;;;;;;;;;4997123;28;20489;-79
2023/12/09 09:58:23;;;;;;;0.57;0.40;;;;;;;;;;4996787;28;20093;-79
2023/12/09 10:00:50;;;;;;;1.52;0.80;;;;;;;;;;5009379;28;20037;-80
2023/12/09 10:03:16;;;;;;;0.85;0.63;;;;;;;;;;5023595;28;20042;-78
2023/12/09 10:05:43;;;;;;;1.05;0.70;;;;;;;;;;5011846;28;20032;-80
2023/12/09 10:08:09;;;;;;;0.68;0.68;;;;;;;;;;4997061;28;20106;-79
2023/12/09 10:10:35;;;;;;;1.25;1.10;;;;;;;;;;4996822;28;20026;-80
2023/12/09 10:13:01;;;;;;;0.80;0.80;;;;;;;;;;5001302;28;20027;-79
2023/12/09 10:15:27;;;;;;;1.73;1.40;;;;;;;;;;5016738;28;20029;-80
2023/12/09 10:17:58;;;;;;;2.38;1.80;;;;;;;;;;5014456;28;20027;-80
2023/12/09 10:20:24;;;;;;;3.45;2.00;;;;;;;;;;5005502;28;20026;-80
2023/12/09 10:22:50;;;;;;;2.65;1.50;;;;;;;;;;5017985;28;20053;-80
2023/12/09 10:25:22;;;;;;;2.80;2.00;;;;;;;;;;5013015;28;20117;-79
2023/12/09 10:27:48;;;;;;;;;;;;;;;;;;5005074;28;20034;-78
2023/12/09 10:30:18;;;;;;;2.20;1.48;;;;;;;;;;5005180;28;19906;-80
2023/12/09 10:32:44;;;;;;;3.00;2.10;;;;;;;;;;4988749;28;20438;-80
2023/12/09 10:35:11;;;;;;;2.80;2.40;;;;;;;;;;4990574;28;20470;-80
2023/12/09 10:37:37;;;;;;;2.47;1.88;;;;;;;;;;4997990;28;20034;-79
2023/12/09 10:40:09;;;;;;;3.65;2.10;;;;;;;;;;4998027;28;20037;-80
2023/12/09 10:42:37;;;;;;;3.05;1.80;;;;;;;;;;4996218;28;20030;-80
2023/12/09 10:45:07;;;;;;;2.13;1.50;;;;;;;;;;4996690;28;20026;-79
2023/12/09 10:47:34;;;;;;;2.33;1.70;;;;;;;;;;4995375;28;20026;-80
2023/12/09 10:50:02;;;;;;;1.73;1.35;;;;;;;;;;4996407;28;20039;-80
2023/12/09 10:52:29;;;;;;;1.88;1.50;;;;;;;;;;4995371;28;20102;-79
2023/12/09 10:54:55;;;;;;;1.95;1.50;;;;;;;;;;4996065;28;20049;-77
2023/12/09 10:57:22;;;;;;;1.80;1.40;;;;;;;;;;4995684;28;20050;-79
2023/12/09 10:59:48;;;;;;;1.20;1.10;;;;;;;;;;5003884;28;20065;-79
2023/12/09 11:02:16;;;;;;;1.45;1.33;;;;;;;;;;5000070;28;20365;-79
2023/12/09 11:04:43;;;;;;;2.55;1.10;;;;;;;;;;5008554;28;20022;-80
2023/12/09 11:07:11;;;;;;;2.08;1.30;;;;;;;;;;4989168;28;20083;-79
2023/12/09 11:09:38;;;;;;;1.10;1.00;;;;;;;;;;5005341;28;20058;-80
2023/12/09 11:12:04;;;;;;;1.30;1.00;;;;;;;;;;4995865;28;20002;-78
2023/12/09 11:14:31;;;;;;;1.63;1.45;;;;;;;;;;4995767;28;20023;-79
2023/12/09 11:16:59;;;;;;;1.10;1.00;;;;;;;;;;4996325;28;20034;-79
2023/12/09 11:19:25;;;;;;;1.10;1.00;;;;;;;;;;4995775;28;20018;-80
2023/12/09 11:21:52;;;;;;;0.98;0.90;;;;;;;;;;4995904;28;20022;-78
2023/12/09 11:24:19;;;;;;;1.83;0.82;;;;;;;;;;4993871;28;20033;-80
2023/12/09 11:26:45;;;;;;;0.80;0.70;;;;;;;;;;4994696;28;20485;-80
2023/12/09 11:29:15;;;;;;;0.80;0.63;;;;;;;;;;5002705;28;20115;-80
2023/12/09 11:31:42;;;;;;;1.17;0.95;;;;;;;;;;5006442;28;20023;-77
2023/12/09 11:34:09;;;;;;;0.88;0.88;;;;;;;;;;4999988;28;20049;-79
2023/12/09 11:36:36;;;;;;;2.22;1.10;;;;;;;;;;5012100;28;20014;-80
2023/12/09 11:39:06;;;;;;;1.70;0.80;;;;;;;;;;5015307;28;20026;-80
2023/12/09 11:41:33;;;;;;;1.00;0.60;;;;;;;;;;4996010;28;20030;-80
2023/12/09 11:44:00;;;;;;;0.73;0.65;;;;;;;;;;4995259;28;20049;-79
2023/12/09 11:46:27;;;;;;;0.80;0.80;;;;;;;;;;4996171;28;20026;-79
2023/12/09 11:48:54;;;;;;;1.40;0.60;;;;;;;;;;4994354;28;20030;-80
2023/12/09 11:51:20;;;;;;;1.10;0.80;;;;;;;;;;4995454;28;20477;-79
2023/12/09 11:53:53;;;;;;;0.85;0.70;;;;;;;;;;4994934;28;20034;-79
2023/12/09 11:56:19;;;;;;;1.27;0.70;;;;;;;;;;4997658;28;20022;-79
2023/12/09 11:58:45;;;;;;;1.10;0.80;;;;;;;;;;4995748;28;20074;-78
2023/12/09 12:01:11;;;;;;;0.73;0.52;;;;;;;;;;5008531;28;20025;-79
2023/12/09 12:03:37;;;;;;;1.42;0.50;;;;;;;;;;4996560;28;20026;-78
2023/12/09 12:06:04;;;;;;;1.15;0.70;;;;;;;;;;4997786;28;20030;-78
2023/12/09 12:08:30;;;;;;;0.47;0.47;;;;;;;;;;4998728;28;20098;-80
2023/12/09 12:10:56;;;;;;;0.40;0.40;;;;;;;;;;4999060;28;20396;-79
2023/12/09 12:13:22;;;;;;;0.95;0.57;;;;;;;;;;4998011;28;20034;-80
2023/12/09 12:15:50;;;;;;;0.35;0.35;;;;;;;;;;4999164;28;20049;-80
2023/12/09 12:18:16;;;;;;;0.40;0.40;;;;;;;;;;4999197;28;20033;-79
2023/12/09 12:20:42;;;;;;;0.57;0.47;;;;;;;;;;4997955;28;20073;-79
2023/12/09 12:23:08;;;;;;;0.30;0.30;;;;;;;;;;4995031;28;20033;-79
2023/12/09 12:25:36;;;;;;;0.90;0.40;;;;;;;;;;4996464;28;20102;-79
2023/12/09 12:28:04;;;;;;;0.30;0.20;;;;;;;;;;4995451;28;20485;-78
2023/12/09 12:30:31;;;;;;;0.40;0.20;;;;;;;;;;4994217;28;20034;-80
2023/12/09 12:32:57;;;;;;;0.47;0.30;;;;;;;;;;4992363;28;20056;-79
2023/12/09 12:35:24;;;;;;;0.82;0.40;;;;;;;;;;5004040;28;20467;-79
2023/12/09 12:37:53;;;;;;;0.25;0.25;;;;;;;;;;4994669;28;20031;-80
2023/12/09 12:40:19;;;;;;;0.40;0.40;;;;;;;;;;4992902;28;20455;-79
2023/12/09 12:42:45;;;;;;;0.50;0.50;;;;;;;;;;4993715;28;20491;-80
2023/12/09 12:45:18;;;;;;;0.43;0.40;;;;;;;;;;4993458;28;20029;-80
2023/12/09 12:47:45;;;;;;;0.55;0.30;;;;;;;;;;4990310;28;20102;-79
2023/12/09 12:50:11;;;;;;;0.88;0.50;;;;;;;;;;4986910;28;20388;-80
2023/12/09 12:52:37;;;;;;;1.35;0.68;;;;;;;;;;4995192;28;20105;-80
2023/12/09 12:55:04;;;;;;;0.40;0.40;;;;;;;;;;4995210;28;20022;-79
2023/12/09 12:57:31;;;;;;;0.65;0.52;;;;;;;;;;4994508;28;20049;-79
2023/12/09 12:59:57;;;;;;;0.68;0.55;;;;;;;;;;4992461;28;20134;-79
2023/12/09 13:02:23;;;;;;;0.47;0.38;;;;;;;;;;4995127;28;20026;-79
2023/12/09 13:04:49;;;;;;;0.65;0.40;;;;;;;;;;4994278;28;20088;-79
2023/12/09 13:07:16;;;;;;;0.68;0.60;;;;;;;;;;4994103;28;20044;-79
2023/12/09 13:09:42;;;;;;;0.60;0.60;;;;;;;;;;4993075;28;20014;-78
2023/12/09 13:12:09;;;;;;;0.50;0.47;;;;;;;;;;4993523;28;20493;-80
2023/12/09 13:14:35;;;;;;;0.63;0.50;;;;;;;;;;4993559;28;20030;-79
2023/12/09 13:17:04;;;;;;;0.40;0.30;;;;;;;;;;4993616;28;20018;-79
2023/12/09 13:19:30;;;;;;;0.30;0.30;;;;;;;;;;4994861;28;20157;-79
2023/12/09 13:21:56;;;;;;;0.70;0.60;;;;;;;;;;4998157;28;20092;-79
2023/12/09 13:24:23;;;;;;;0.47;0.43;;;;;;;;;;5003022;28;20065;-79
2023/12/09 13:26:49;;;;;;;0.20;0.20;;;;;;;;;;5004572;28;20469;-79
2023/12/09 13:29:15;;;;;;;0.70;0.52;;;;;;;;;;4998230;28;20026;-79
2023/12/09 13:31:41;;;;;;;2.67;1.00;;;;;;;;;;5006772;28;20022;-79
2023/12/09 13:34:17;;;;;;;0.98;0.80;;;;;;;;;;5023581;28;20038;-79
2023/12/09 13:36:44;;;;;;;1.05;0.63;;;;;;;;;;4997911;28;20058;-79
2023/12/09 13:39:11;;;;;;;1.40;0.77;;;;;;;;;;5007823;28;20388;-79
2023/12/09 13:41:42;;;;;;;1.25;0.65;;;;;;;;;;5005231;28;20034;-79
2023/12/09 13:44:08;;;;;;;1.38;0.85;;;;;;;;;;4999766;28;20054;-80
2023/12/09 13:46:35;;;;;;;0.90;0.80;;;;;;;;;;4998138;28;20019;-79
2023/12/09 13:49:01;;;;;;;0.70;0.70;;;;;;;;;;4998945;28;20015;-79
2023/12/09 13:51:28;;;;;;;0.70;0.70;;;;;;;;;;4999458;28;20190;-80
2023/12/09 13:53:54;;;;;;;1.40;0.93;;;;;;;;;;4997022;28;20378;-79
2023/12/09 13:56:20;;;;;;;0.75;0.75;;;;;;;;;;5000683;28;20034;-80
2023/12/09 13:58:49;;;;;;;0.98;0.70;;;;;;;;;;4998759;28;20038;-79
2023/12/09 14:01:15;;;;;;;0.95;0.80;;;;;;;;;;4998070;28;20026;-79
2023/12/09 14:03:42;;;;;;;0.77;0.77;;;;;;;;;;4997548;28;20034;-80
2023/12/09 14:06:08;;;;;;;1.30;1.00;;;;;;;;;;5007015;28;20011;-79
2023/12/09 14:08:34;;;;;;;1.70;1.13;;;;;;;;;;5000546;28;20050;-80
2023/12/09 14:11:00;;;;;;;1.35;0.95;;;;;;;;;;4980887;28;20046;-79
2023/12/09 14:13:27;;;;;;;0.93;0.73;;;;;;;;;;4997697;28;20084;-79
2023/12/09 14:15:57;;;;;;;1.48;1.17;;;;;;;;;;5002882;28;20025;-79
2023/12/09 14:18:23;;;;;;;1.77;1.17;;;;;;;;;;4998849;28;20631;-79
2023/12/09 14:20:49;;;;;;;2.03;1.20;;;;;;;;;;4993945;28;20090;-80
2023/12/09 14:23:16;;;;;;;1.45;1.20;;;;;;;;;;4993117;28;20410;-80
2023/12/09 14:25:42;;;;;;;1.35;1.13;;;;;;;;;;4991586;28;20034;-79
2023/12/09 14:28:09;;;;;;;2.05;1.33;;;;;;;;;;4994021;28;20033;-78
2023/12/09 14:30:35;;;;;;;1.15;0.98;;;;;;;;;;4982409;28;20561;-78
2023/12/09 14:33:01;;;;;;;1.45;1.20;;;;;;;;;;5003578;28;20038;-77
2023/12/09 14:35:27;;;;;;;2.40;1.50;;;;;;;;;;5007246;28;20492;-78
2023/12/09 14:37:53;;;;;;;2.22;1.40;;;;;;;;;;4998513;28;20461;-78
2023/12/09 14:40:20;;;;;;;1.45;1.33;;;;;;;;;;4995371;28;20026;-77